createdAt,value
2018-11-11T00:00:48.793Z,20.10
2018-11-11T00:03:17.086Z,20.00
2018-11-11T00:05:45.429Z,20.00
2018-11-11T00:08:13.707Z,20.00
2018-11-11T00:10:42.020Z,20.00
2018-11-11T00:13:10.314Z,20.00
2018-11-11T00:15:38.597Z,19.90
2018-11-11T00:18:06.905Z,19.90
2018-11-11T00:20:35.199Z,20.00
2018-11-11T00:23:03.504Z,20.00
2018-11-11T00:25:31.810Z,20.00
2018-11-11T00:28:00.104Z,20.00
2018-11-11T00:30:28.428Z,20.00
2018-11-11T00:32:56.751Z,20.00
2018-11-11T00:35:25.038Z,19.90
2018-11-11T00:37:53.345Z,19.90
2018-11-11T00:40:21.667Z,19.90
2018-11-11T00:42:50.018Z,19.90
2018-11-11T00:45:18.311Z,19.90
2018-11-11T00:47:46.841Z,19.90
2018-11-11T00:50:15.166Z,19.90
2018-11-11T00:52:43.459Z,19.90
2018-11-11T00:55:13.961Z,19.90
2018-11-11T00:57:42.861Z,19.90
2018-11-11T01:00:14.104Z,20.00
2018-11-11T01:02:43.277Z,19.90
2018-11-11T01:05:12.211Z,20.00
2018-11-11T01:07:41.287Z,20.00
2018-11-11T01:10:11.486Z,19.90
2018-11-11T01:12:40.527Z,20.00
2018-11-11T01:15:10.227Z,19.90
2018-11-11T01:17:38.619Z,19.90
2018-11-11T01:20:08.437Z,19.90
2018-11-11T01:22:36.870Z,19.90
2018-11-11T01:25:06.133Z,19.90
2018-11-11T01:27:34.472Z,19.90
2018-11-11T01:30:02.796Z,19.90
2018-11-11T01:32:31.110Z,19.90
2018-11-11T01:34:59.410Z,19.90
2018-11-11T01:37:27.762Z,19.90
2018-11-11T01:39:56.085Z,19.90
2018-11-11T01:42:24.394Z,19.80
2018-11-11T01:44:52.762Z,19.80
2018-11-11T01:47:21.064Z,19.80
2018-11-11T01:49:49.374Z,19.90
2018-11-11T01:52:17.657Z,19.90
2018-11-11T01:54:45.990Z,19.90
2018-11-11T01:57:14.298Z,20.00
2018-11-11T01:59:42.663Z,20.00
2018-11-11T02:02:10.976Z,20.00
2018-11-11T02:04:39.276Z,20.00
2018-11-11T02:07:07.578Z,19.90
2018-11-11T02:09:35.941Z,20.00
2018-11-11T02:12:04.316Z,19.90
2018-11-11T02:14:32.662Z,19.90
2018-11-11T02:17:00.971Z,19.90
2018-11-11T02:19:29.274Z,19.90
2018-11-11T02:21:57.576Z,19.90
2018-11-11T02:24:25.868Z,19.90
2018-11-11T02:26:54.146Z,19.90
2018-11-11T02:29:22.429Z,19.90
2018-11-11T02:31:50.710Z,19.90
2018-11-11T02:34:19.027Z,19.90
2018-11-11T02:36:47.297Z,19.80
2018-11-11T02:39:15.674Z,19.80
2018-11-11T02:41:43.957Z,19.90
2018-11-11T02:44:12.237Z,19.90
2018-11-11T02:46:40.552Z,19.90
2018-11-11T02:49:08.846Z,20.00
2018-11-11T02:51:37.415Z,20.00
2018-11-11T02:54:05.741Z,20.00
2018-11-11T02:56:34.025Z,20.00
2018-11-11T02:59:02.326Z,20.00
2018-11-11T03:01:30.624Z,20.00
2018-11-11T03:03:58.919Z,20.00
2018-11-11T03:06:27.208Z,20.00
2018-11-11T03:08:55.518Z,19.90
2018-11-11T03:11:23.792Z,19.90
2018-11-11T03:13:52.070Z,19.90
2018-11-11T03:16:20.372Z,19.90
2018-11-11T03:18:48.695Z,19.90
2018-11-11T03:21:16.966Z,19.90
2018-11-11T03:23:45.266Z,19.80
2018-11-11T03:26:13.562Z,19.80
2018-11-11T03:28:41.835Z,19.80
2018-11-11T03:31:10.122Z,19.80
2018-11-11T03:33:38.533Z,19.80
2018-11-11T03:36:06.827Z,19.90
2018-11-11T03:38:35.112Z,20.00
2018-11-11T03:41:03.415Z,19.90
2018-11-11T03:43:33.262Z,20.00
2018-11-11T03:46:01.578Z,20.00
2018-11-11T03:48:29.969Z,19.90
2018-11-11T03:50:58.271Z,19.90
2018-11-11T03:53:26.559Z,19.90
2018-11-11T03:55:54.889Z,19.90
2018-11-11T03:58:23.180Z,19.90
2018-11-11T04:00:51.492Z,19.80
2018-11-11T04:03:19.753Z,19.80
2018-11-11T04:05:48.046Z,19.80
2018-11-11T04:08:16.362Z,19.80
2018-11-11T04:10:44.667Z,19.80
2018-11-11T04:13:12.937Z,19.80
2018-11-11T04:15:41.262Z,19.80
2018-11-11T04:18:09.550Z,19.80
2018-11-11T04:20:37.822Z,19.80
2018-11-11T04:23:06.221Z,19.80
2018-11-11T04:25:34.510Z,19.80
2018-11-11T04:28:02.918Z,19.80
2018-11-11T04:30:31.222Z,19.90
2018-11-11T04:32:59.505Z,20.00
2018-11-11T04:35:27.798Z,20.00
2018-11-11T04:37:56.081Z,20.00
2018-11-11T04:40:24.362Z,19.90
2018-11-11T04:42:52.750Z,19.90
2018-11-11T04:45:21.026Z,19.90
2018-11-11T04:47:49.316Z,20.00
2018-11-11T04:50:18.276Z,19.90
2018-11-11T04:52:47.137Z,19.90
2018-11-11T04:55:15.448Z,19.90
2018-11-11T04:57:43.862Z,19.90
2018-11-11T05:00:13.329Z,19.90
2018-11-11T05:02:41.921Z,19.90
2018-11-11T05:05:11.435Z,19.90
2018-11-11T05:07:40.026Z,19.90
2018-11-11T05:10:08.582Z,19.90
2018-11-11T05:12:37.226Z,19.80
2018-11-11T05:15:06.612Z,19.90
2018-11-11T05:17:34.998Z,19.90
2018-11-11T05:20:03.292Z,19.90
2018-11-11T05:22:31.571Z,20.00
2018-11-11T05:24:59.854Z,20.00
2018-11-11T05:27:28.143Z,20.00
2018-11-11T05:29:56.444Z,20.00
2018-11-11T05:32:24.742Z,20.00
2018-11-11T05:34:53.029Z,20.00
2018-11-11T05:37:21.319Z,20.00
2018-11-11T05:39:49.608Z,20.00
2018-11-11T05:42:17.929Z,20.00
2018-11-11T05:44:46.222Z,20.00
2018-11-11T05:47:14.532Z,19.90
2018-11-11T05:49:42.848Z,20.00
2018-11-11T05:52:11.147Z,19.90
2018-11-11T05:54:39.432Z,19.90
2018-11-11T05:57:07.696Z,19.90
2018-11-11T05:59:36.001Z,19.90
2018-11-11T06:02:04.311Z,19.90
2018-11-11T06:04:32.623Z,19.90
2018-11-11T06:07:00.993Z,19.90
2018-11-11T06:09:29.298Z,19.90
2018-11-11T06:11:57.592Z,20.00
2018-11-11T06:14:25.964Z,20.00
2018-11-11T06:16:54.266Z,20.00
2018-11-11T06:19:22.661Z,20.00
2018-11-11T06:21:50.984Z,20.00
2018-11-11T06:24:19.303Z,20.00
2018-11-11T06:26:47.675Z,20.00
2018-11-11T06:29:15.973Z,20.00
2018-11-11T06:31:44.278Z,19.90
2018-11-11T06:34:12.730Z,19.90
2018-11-11T06:36:40.886Z,20.00
2018-11-11T06:39:10.465Z,19.90
2018-11-11T06:41:38.818Z,19.90
2018-11-11T06:44:07.131Z,19.90
2018-11-11T06:46:35.422Z,19.90
2018-11-11T06:49:03.719Z,20.00
2018-11-11T06:51:32.107Z,20.00
2018-11-11T06:54:00.439Z,20.00
2018-11-11T06:56:29.022Z,20.00
2018-11-11T06:58:58.650Z,20.00
2018-11-11T07:01:26.979Z,20.00
2018-11-11T07:03:57.803Z,20.00
2018-11-11T07:06:26.685Z,20.00
2018-11-11T07:08:55.128Z,20.00
2018-11-11T07:11:23.418Z,20.00
2018-11-11T07:13:51.728Z,20.00
2018-11-11T07:16:21.103Z,20.00
2018-11-11T07:18:49.390Z,20.00
2018-11-11T07:21:18.195Z,20.00
2018-11-11T07:23:46.968Z,20.00
2018-11-11T07:26:15.134Z,20.00
2018-11-11T07:28:43.502Z,19.90
2018-11-11T07:31:11.805Z,19.90
2018-11-11T07:33:40.121Z,19.90
2018-11-11T07:36:09.486Z,19.90
2018-11-11T07:38:37.919Z,19.90
2018-11-11T07:41:06.444Z,20.00
2018-11-11T07:43:34.749Z,20.00
2018-11-11T07:46:03.458Z,20.00
2018-11-11T07:48:31.780Z,20.00
2018-11-11T07:51:00.085Z,20.00
2018-11-11T07:53:28.652Z,20.00
2018-11-11T07:55:56.951Z,20.00
2018-11-11T07:58:25.254Z,20.00
2018-11-11T08:00:53.655Z,20.00
2018-11-11T08:03:21.957Z,20.00
2018-11-11T08:05:50.369Z,20.00
2018-11-11T08:08:18.750Z,20.00
2018-11-11T08:10:58.442Z,19.90
2018-11-11T08:13:26.839Z,20.00
2018-11-11T08:15:55.151Z,20.00
2018-11-11T08:18:23.445Z,20.10
2018-11-11T08:20:51.832Z,20.10
2018-11-11T08:23:20.142Z,20.20
2018-11-11T08:25:48.483Z,20.30
2018-11-11T08:28:17.828Z,20.40
2018-11-11T08:30:46.190Z,20.50
2018-11-11T08:33:14.492Z,20.60
2018-11-11T08:35:42.849Z,20.60
2018-11-11T08:38:11.137Z,20.70
2018-11-11T08:40:39.596Z,20.70
2018-11-11T08:43:07.848Z,20.70
2018-11-11T08:45:36.219Z,20.70
2018-11-11T08:48:04.765Z,20.60
2018-11-11T08:50:33.077Z,20.50
2018-11-11T08:53:01.446Z,20.50
2018-11-11T08:55:29.775Z,20.40
2018-11-11T08:57:58.112Z,20.40
2018-11-11T09:00:26.429Z,20.30
2018-11-11T09:02:54.731Z,20.30
2018-11-11T09:05:23.143Z,20.20
2018-11-11T09:07:51.483Z,20.20
2018-11-11T09:10:19.901Z,20.10
2018-11-11T09:12:48.413Z,20.20
2018-11-11T09:15:16.793Z,20.10
2018-11-11T09:17:45.127Z,20.10
2018-11-11T09:20:14.685Z,20.10
2018-11-11T09:22:43.025Z,20.10
2018-11-11T09:25:11.598Z,20.10
2018-11-11T09:27:41.309Z,20.10
2018-11-11T09:30:11.683Z,20.10
2018-11-11T09:32:40.128Z,20.20
2018-11-11T09:35:08.846Z,20.20
2018-11-11T09:37:37.618Z,20.30
2018-11-11T09:40:06.791Z,20.30
2018-11-11T09:42:35.675Z,20.30
2018-11-11T09:45:03.967Z,20.30
2018-11-11T09:47:32.291Z,20.20
2018-11-11T09:50:00.727Z,20.20
2018-11-11T09:52:29.079Z,20.20
2018-11-11T09:54:57.427Z,20.10
2018-11-11T09:57:25.730Z,20.10
2018-11-11T09:59:54.144Z,20.10
2018-11-11T10:02:22.432Z,20.10
2018-11-11T10:05:05.953Z,20.10
2018-11-11T10:07:43.839Z,20.10
2018-11-11T10:10:17.485Z,20.10
2018-11-11T10:13:57.674Z,20.10
2018-11-11T10:16:39.305Z,20.10
2018-11-11T10:19:41.745Z,20.10
2018-11-11T10:23:20.379Z,20.20
2018-11-11T10:25:53.989Z,20.20
2018-11-11T10:29:30.506Z,20.10
2018-11-11T10:32:07.007Z,20.10
2018-11-11T10:34:45.137Z,20.10
2018-11-11T10:37:17.446Z,20.10
2018-11-11T10:41:54.836Z,20.10
2018-11-11T10:44:57.595Z,20.10
2018-11-11T10:47:32.883Z,20.10
2018-11-11T10:50:03.673Z,20.10
2018-11-11T10:52:32.025Z,20.10
2018-11-11T10:55:00.362Z,20.10
2018-11-11T10:57:28.675Z,20.10
2018-11-11T10:59:57.082Z,20.10
2018-11-11T11:02:27.626Z,20.10
2018-11-11T11:05:01.347Z,20.10
2018-11-11T11:07:30.685Z,20.10
2018-11-11T11:09:59.069Z,20.10
2018-11-11T11:12:27.369Z,20.10
2018-11-11T11:14:55.703Z,20.10
2018-11-11T11:17:24.036Z,20.10
2018-11-11T11:19:52.477Z,20.10
2018-11-11T11:22:20.842Z,20.10
2018-11-11T11:24:49.182Z,20.20
2018-11-11T11:27:17.580Z,20.20
2018-11-11T11:29:45.858Z,20.20
2018-11-11T11:32:14.329Z,20.20
2018-11-11T11:34:42.617Z,20.20
2018-11-11T11:37:10.954Z,20.10
2018-11-11T11:39:39.315Z,20.10
2018-11-11T11:42:07.905Z,20.20
2018-11-11T11:44:36.313Z,20.10
2018-11-11T11:47:04.894Z,20.10
2018-11-11T11:49:33.205Z,20.10
2018-11-11T11:52:01.605Z,20.10
2018-11-11T11:54:29.952Z,20.10
2018-11-11T11:56:58.265Z,20.10
2018-11-11T11:59:26.572Z,20.10
2018-11-11T12:01:54.945Z,20.10
2018-11-11T12:04:23.253Z,20.00
2018-11-11T12:06:51.576Z,20.00
2018-11-11T12:09:20.476Z,20.00
2018-11-11T12:11:48.793Z,20.10
2018-11-11T12:14:17.109Z,20.10
2018-11-11T12:16:45.566Z,20.20
2018-11-11T12:19:13.754Z,20.20
2018-11-11T12:21:42.108Z,20.20
2018-11-11T12:24:10.428Z,20.20
2018-11-11T12:26:38.737Z,20.20
2018-11-11T12:29:07.903Z,20.20
2018-11-11T12:31:36.232Z,20.10
2018-11-11T12:34:05.135Z,20.10
2018-11-11T12:36:33.533Z,20.10
2018-11-11T12:39:01.992Z,20.10
2018-11-11T12:41:30.681Z,20.10
2018-11-11T12:43:59.022Z,20.10
2018-11-11T12:46:27.348Z,20.10
2018-11-11T12:48:55.707Z,20.10
2018-11-11T12:51:24.075Z,20.00
2018-11-11T12:53:52.442Z,20.10
2018-11-11T12:56:20.804Z,20.10
2018-11-11T12:58:49.115Z,20.10
2018-11-11T13:01:17.452Z,20.20
2018-11-11T13:03:45.781Z,20.20
2018-11-11T13:06:14.516Z,20.20
2018-11-11T13:08:42.872Z,20.10
2018-11-11T13:11:11.240Z,20.10
2018-11-11T13:13:39.566Z,20.10
2018-11-11T13:16:08.465Z,20.10
2018-11-11T13:18:36.831Z,20.10
2018-11-11T13:21:05.470Z,20.10
2018-11-11T13:23:33.799Z,20.10
2018-11-11T13:26:02.138Z,20.10
2018-11-11T13:28:30.477Z,20.10
2018-11-11T13:30:58.839Z,20.10
2018-11-11T13:33:27.185Z,20.10
2018-11-11T13:35:55.642Z,20.10
2018-11-11T13:38:24.206Z,20.10
2018-11-11T13:40:52.544Z,20.10
2018-11-11T13:43:20.925Z,20.10
2018-11-11T13:45:49.228Z,20.10
2018-11-11T13:48:17.582Z,20.10
2018-11-11T13:50:45.939Z,20.10
2018-11-11T13:53:14.273Z,20.10
2018-11-11T13:55:42.654Z,20.10
2018-11-11T13:58:10.982Z,20.10
2018-11-11T14:00:39.311Z,20.10
2018-11-11T14:03:07.661Z,20.10
2018-11-11T14:05:36.022Z,20.10
2018-11-11T14:08:04.625Z,20.10
2018-11-11T14:10:32.916Z,20.10
2018-11-11T14:13:01.420Z,20.10
2018-11-11T14:15:29.733Z,20.10
2018-11-11T14:17:58.095Z,20.10
2018-11-11T14:20:26.679Z,20.10
2018-11-11T14:22:56.530Z,20.10
2018-11-11T14:25:27.418Z,20.10
2018-11-11T14:27:55.781Z,20.10
2018-11-11T14:30:26.364Z,20.10
2018-11-11T14:32:55.661Z,20.10
2018-11-11T14:35:23.983Z,20.10
2018-11-11T14:37:52.506Z,20.10
2018-11-11T14:40:23.047Z,20.10
2018-11-11T14:42:51.377Z,20.10
2018-11-11T14:45:20.231Z,20.10
2018-11-11T14:47:49.826Z,20.10
2018-11-11T14:50:18.805Z,20.10
2018-11-11T14:52:47.490Z,20.10
2018-11-11T14:55:21.473Z,20.10
2018-11-11T14:57:49.827Z,20.10
2018-11-11T15:00:20.515Z,20.10
2018-11-11T15:02:54.675Z,20.10
2018-11-11T15:05:23.088Z,20.10
2018-11-11T15:07:51.494Z,20.10
2018-11-11T15:10:19.756Z,20.10
2018-11-11T15:12:48.111Z,20.10
2018-11-11T15:15:17.856Z,20.10
2018-11-11T15:17:46.963Z,20.20
2018-11-11T15:20:16.105Z,20.20
2018-11-11T15:22:45.040Z,20.20
2018-11-11T15:25:23.157Z,20.10
2018-11-11T15:27:51.422Z,20.20
2018-11-11T15:30:26.061Z,20.20
2018-11-11T15:32:55.119Z,20.20
2018-11-11T15:35:23.484Z,20.10
2018-11-11T15:37:51.854Z,20.10
2018-11-11T15:40:22.447Z,20.10
2018-11-11T15:42:50.830Z,20.10
2018-11-11T15:45:20.686Z,20.10
2018-11-11T15:47:49.046Z,20.10
2018-11-11T15:50:20.430Z,20.10
2018-11-11T15:52:50.131Z,20.10
2018-11-11T15:55:19.416Z,20.10
2018-11-11T15:57:47.763Z,20.10
2018-11-11T16:00:18.578Z,20.10
2018-11-11T16:02:47.048Z,20.10
2018-11-11T16:05:16.090Z,20.20
2018-11-11T16:07:45.244Z,20.20
2018-11-11T16:10:15.182Z,20.30
2018-11-11T16:12:43.916Z,20.30
2018-11-11T16:15:16.622Z,20.30
2018-11-11T16:17:45.944Z,20.30
2018-11-11T16:20:15.980Z,20.30
2018-11-11T16:22:45.802Z,20.20
2018-11-11T16:25:14.216Z,20.20
2018-11-11T16:27:43.578Z,20.20
2018-11-11T16:30:14.810Z,20.20
2018-11-11T16:32:43.614Z,20.20
2018-11-11T16:35:13.333Z,20.20
2018-11-11T16:37:41.760Z,20.20
2018-11-11T16:40:13.806Z,20.20
2018-11-11T16:42:42.792Z,20.20
2018-11-11T16:45:14.062Z,20.20
2018-11-11T16:47:42.475Z,20.20
2018-11-11T16:50:12.656Z,20.20
2018-11-11T16:52:42.283Z,20.20
2018-11-11T16:55:12.240Z,20.30
2018-11-11T16:57:40.891Z,20.30
2018-11-11T17:00:12.768Z,20.30
2018-11-11T17:02:41.258Z,20.30
2018-11-11T17:05:12.055Z,20.20
2018-11-11T17:07:40.472Z,20.20
2018-11-11T17:10:11.314Z,20.20
2018-11-11T17:12:40.302Z,20.20
2018-11-11T17:15:09.795Z,20.20
2018-11-11T17:17:38.203Z,20.20
2018-11-11T17:20:07.849Z,20.20
2018-11-11T17:22:36.614Z,20.10
2018-11-11T17:25:05.908Z,20.20
2018-11-11T17:27:34.288Z,20.20
2018-11-11T17:30:02.701Z,20.10
2018-11-11T17:32:31.161Z,20.10
2018-11-11T17:34:59.542Z,20.10
2018-11-11T17:37:27.954Z,20.10
2018-11-11T17:39:56.359Z,20.20
2018-11-11T17:42:24.710Z,20.30
2018-11-11T17:44:53.200Z,20.30
2018-11-11T17:47:21.688Z,20.30
2018-11-11T17:49:50.202Z,20.30
2018-11-11T17:52:18.605Z,20.30
2018-11-11T17:54:46.995Z,20.30
2018-11-11T17:57:15.464Z,20.30
2018-11-11T17:59:44.587Z,20.20
2018-11-11T18:02:13.020Z,20.20
2018-11-11T18:04:41.852Z,20.20
2018-11-11T18:07:10.288Z,20.20
2018-11-11T18:09:39.322Z,20.20
2018-11-11T18:12:07.801Z,20.20
2018-11-11T18:14:36.237Z,20.20
2018-11-11T18:17:05.008Z,20.20
2018-11-11T18:19:34.534Z,20.10
2018-11-11T18:22:03.015Z,20.20
2018-11-11T18:24:32.078Z,20.20
2018-11-11T18:27:00.592Z,20.30
2018-11-11T18:29:28.980Z,20.30
2018-11-11T18:31:57.379Z,20.30
2018-11-11T18:34:26.720Z,20.30
2018-11-11T18:36:55.154Z,20.30
2018-11-11T18:39:23.577Z,20.30
2018-11-11T18:41:53.027Z,20.30
2018-11-11T18:44:21.839Z,20.30
2018-11-11T18:46:50.296Z,20.30
2018-11-11T18:49:18.846Z,20.30
2018-11-11T18:51:47.279Z,20.30
2018-11-11T18:54:17.566Z,20.30
2018-11-11T18:56:46.048Z,20.30
2018-11-11T18:59:14.582Z,20.30
2018-11-11T19:01:43.053Z,20.30
2018-11-11T19:04:12.327Z,20.30
2018-11-11T19:06:41.061Z,20.30
2018-11-11T19:09:12.183Z,20.20
2018-11-11T19:11:40.990Z,20.30
2018-11-11T19:14:09.832Z,20.30
2018-11-11T19:16:39.460Z,20.30
2018-11-11T19:19:07.938Z,20.30
2018-11-11T19:21:37.405Z,20.40
2018-11-11T19:24:06.582Z,20.40
2018-11-11T19:26:35.019Z,20.40
2018-11-11T19:29:03.534Z,20.50
2018-11-11T19:31:31.986Z,20.40
2018-11-11T19:34:02.121Z,20.40
2018-11-11T19:36:30.607Z,20.40
2018-11-11T19:38:59.680Z,20.30
2018-11-11T19:41:28.816Z,20.30
2018-11-11T19:43:57.843Z,20.30
2018-11-11T19:46:26.368Z,20.30
2018-11-11T19:48:55.378Z,20.30
2018-11-11T19:51:23.854Z,20.30
2018-11-11T19:53:52.322Z,20.30
2018-11-11T19:56:27.619Z,20.30
2018-11-11T19:58:56.047Z,20.30
2018-11-11T20:01:24.571Z,20.30
2018-11-11T20:03:53.409Z,20.30
2018-11-11T20:06:22.159Z,20.30
2018-11-11T20:08:53.115Z,20.30
2018-11-11T20:11:21.753Z,20.30
2018-11-11T20:13:50.155Z,20.30
2018-11-11T20:16:18.597Z,20.30
2018-11-11T20:18:47.084Z,20.30
2018-11-11T20:21:16.473Z,20.40
2018-11-11T20:23:45.686Z,20.40
2018-11-11T20:26:15.642Z,20.50
2018-11-11T20:28:52.892Z,20.50
2018-11-11T20:31:22.309Z,20.50
2018-11-11T20:33:50.800Z,20.40
2018-11-11T20:36:19.473Z,20.40
2018-11-11T20:38:48.618Z,20.40
2018-11-11T20:41:17.081Z,20.30
2018-11-11T20:43:46.025Z,20.40
2018-11-11T20:46:14.836Z,20.40
2018-11-11T20:48:43.841Z,20.30
2018-11-11T20:51:13.456Z,20.30
2018-11-11T20:53:42.760Z,20.30
2018-11-11T20:56:12.792Z,20.30
2018-11-11T20:58:42.057Z,20.30
2018-11-11T21:01:10.498Z,20.30
2018-11-11T21:03:40.446Z,20.30
2018-11-11T21:06:09.293Z,20.30
2018-11-11T21:08:38.514Z,20.40
2018-11-11T21:11:07.066Z,20.40
2018-11-11T21:13:35.537Z,20.40
2018-11-11T21:16:03.965Z,20.40
2018-11-11T21:18:32.825Z,20.40
2018-11-11T21:21:01.220Z,20.40
2018-11-11T21:23:30.525Z,20.40
2018-11-11T21:25:58.953Z,20.40
2018-11-11T21:28:27.954Z,20.30
2018-11-11T21:30:56.474Z,20.30
2018-11-11T21:33:25.724Z,20.30
2018-11-11T21:35:54.154Z,20.30
2018-11-11T21:38:23.922Z,20.30
2018-11-11T21:40:54.076Z,20.30
2018-11-11T21:43:22.591Z,20.30
2018-11-11T21:45:51.158Z,20.20
2018-11-11T21:48:19.496Z,20.20
2018-11-11T21:50:47.887Z,20.20
2018-11-11T21:53:27.681Z,20.20
2018-11-11T21:55:56.256Z,20.30
2018-11-11T21:58:24.740Z,20.30
2018-11-11T22:00:53.716Z,20.30
2018-11-11T22:03:22.289Z,20.30
2018-11-11T22:05:51.519Z,20.30
2018-11-11T22:08:19.899Z,20.30
2018-11-11T22:10:48.369Z,20.30
2018-11-11T22:13:16.726Z,20.30
2018-11-11T22:15:45.122Z,20.30
2018-11-11T22:18:13.489Z,20.20
2018-11-11T22:20:41.841Z,20.20
2018-11-11T22:23:10.210Z,20.20
2018-11-11T22:25:38.506Z,20.20
2018-11-11T22:28:07.009Z,20.20
2018-11-11T22:30:35.311Z,20.20
2018-11-11T22:33:04.204Z,20.20
2018-11-11T22:35:32.515Z,20.30
2018-11-11T22:38:00.840Z,20.20
2018-11-11T22:40:29.267Z,20.20
2018-11-11T22:42:57.571Z,20.20
2018-11-11T22:45:25.881Z,20.20
2018-11-11T22:47:54.161Z,20.20
2018-11-11T22:50:22.819Z,20.20
2018-11-11T22:52:51.108Z,20.10
2018-11-11T22:55:19.418Z,20.10
2018-11-11T22:57:47.713Z,20.10
2018-11-11T23:00:31.519Z,20.10
2018-11-11T23:02:59.877Z,20.10
2018-11-11T23:05:28.189Z,20.20
2018-11-11T23:07:57.468Z,20.20
2018-11-11T23:10:25.783Z,20.20
2018-11-11T23:12:54.111Z,20.20
2018-11-11T23:15:23.059Z,20.20
2018-11-11T23:17:51.339Z,20.20
2018-11-11T23:20:20.442Z,20.20
2018-11-11T23:22:49.291Z,20.20
2018-11-11T23:25:18.153Z,20.20
2018-11-11T23:27:46.449Z,20.10
2018-11-11T23:30:16.855Z,20.10
2018-11-11T23:32:45.547Z,20.10
2018-11-11T23:35:13.848Z,20.10
2018-11-11T23:37:42.645Z,20.10
2018-11-11T23:40:12.361Z,20.10
2018-11-11T23:42:41.734Z,20.10
2018-11-11T23:45:10.037Z,20.10
2018-11-11T23:47:38.362Z,20.10
2018-11-11T23:50:11.985Z,20.10
2018-11-11T23:52:40.431Z,20.10
2018-11-11T23:55:10.019Z,20.20
2018-11-11T23:57:38.433Z,20.20
